Current Weather

Iran Shahr

Iran Shahr, Iran (OIZI)

Report from: Monday, July 22, 2024 10:00 AM UTC
Current time: Monday, July 22, 2024 10:28 AM UTC

Nearby weather – Weather history – Daily summaries
Weather forecast

Temperature44.0°C (111.2°F)
Heat index47.9°C (118.3°F)
Dew point19.0°C (66.2°F)
Winds 10 kts (5.1 m/s, 11.5 mph) Southwest (220°)
Visibility6.2 mi. (10 km)
Clouds Few clouds 4,000 ft. (1,219 m)
Ceiling: Broken clouds 20,000 ft. (6,096 m)
Altimeter29.50 in.Hg (999 mB)
Relative humidity24 %
Density altitude4,006 ft. (1,221 m)
Flight conditions Visual Meteorological Conditions
Raw dataOIZI 221000Z 22010KT 9999 FEW040 BKN200 44/19 Q0999
An error has occurred. This application may no longer respond until reloaded. Reload 🗙